Time;durP1;ratioP1;P1;durP2;ratioP2;P2;SDS_P1;SDS_P2;PMS_P1;PMS_P2;Temp;Humidity;BMP_temperature;BMP_pressure;BME280_temperature;BME280_humidity;BME280_pressure;Samples;Min_cycle;Max_cycle;Signal;HPM_P1;HPM_P2
2022/07/16 00:01:51;;;;;;;2.88;1.90;;;;;;;;;;5071903;28;20371;-80
2022/07/16 00:04:17;;;;;;;3.17;2.00;;;;;;;;;;5071433;28;20376;-80
2022/07/16 00:06:44;;;;;;;3.10;1.90;;;;;;;;;;5086161;28;20423;-80
2022/07/16 00:09:11;;;;;;;2.13;1.90;;;;;;;;;;5092295;28;20805;-80
2022/07/16 00:11:37;;;;;;;2.45;1.92;;;;;;;;;;5092311;28;20377;-80
2022/07/16 00:14:03;;;;;;;1.97;1.80;;;;;;;;;;5091866;28;20374;-80
2022/07/16 00:16:29;;;;;;;2.28;2.00;;;;;;;;;;5072426;28;20399;-80
2022/07/16 00:21:40;;;;;;;2.75;1.85;;;;;;;;;;5083117;28;20377;-80
2022/07/16 00:24:07;;;;;;;2.40;1.90;;;;;;;;;;5091908;28;20374;-80
2022/07/16 00:26:33;;;;;;;3.53;2.05;;;;;;;;;;5091907;28;20402;-80
2022/07/16 00:28:59;;;;;;;2.30;1.85;;;;;;;;;;5091904;28;20397;-80
2022/07/16 00:31:25;;;;;;;2.87;2.00;;;;;;;;;;5093414;28;20374;-79
2022/07/16 00:33:51;;;;;;;2.33;1.95;;;;;;;;;;5092591;28;20463;-79
2022/07/16 00:36:17;;;;;;;3.30;1.90;;;;;;;;;;5088745;28;20398;-80
2022/07/16 00:38:43;;;;;;;2.47;2.03;;;;;;;;;;5095636;28;20879;-80
2022/07/16 00:41:19;;;;;;;3.40;2.00;;;;;;;;;;5094578;28;20401;-79
2022/07/16 00:43:48;;;;;;;2.47;2.08;;;;;;;;;;5095693;28;20843;-79
2022/07/16 00:46:15;;;;;;;2.00;1.80;;;;;;;;;;5095506;28;20923;-79
2022/07/16 00:48:41;;;;;;;2.25;1.90;;;;;;;;;;5095635;28;20470;-79
2022/07/16 00:51:07;;;;;;;2.30;2.10;;;;;;;;;;5095384;28;20416;-80
2022/07/16 00:53:34;;;;;;;2.05;1.85;;;;;;;;;;5095471;28;20878;-79
2022/07/16 00:56:00;;;;;;;2.22;1.98;;;;;;;;;;5095185;28;20765;-79
2022/07/16 00:58:26;;;;;;;2.20;2.00;;;;;;;;;;5094241;28;20821;-79
2022/07/16 01:00:52;;;;;;;2.03;1.80;;;;;;;;;;5095226;28;20374;-79
2022/07/16 01:03:18;;;;;;;4.38;2.40;;;;;;;;;;5095226;28;20382;-79
2022/07/16 01:05:45;;;;;;;4.55;2.00;;;;;;;;;;5095339;28;20382;-79
2022/07/16 01:08:11;;;;;;;3.27;2.10;;;;;;;;;;5095069;28;20465;-79
2022/07/16 01:10:39;;;;;;;4.55;2.05;;;;;;;;;;5095061;28;20380;-79
2022/07/16 01:13:05;;;;;;;3.60;2.00;;;;;;;;;;5094983;28;20469;-81
2022/07/16 01:15:31;;;;;;;4.55;2.17;;;;;;;;;;5083081;28;20457;-79
2022/07/16 01:17:57;;;;;;;3.10;2.08;;;;;;;;;;5074683;28;20783;-79
2022/07/16 01:20:23;;;;;;;3.67;2.17;;;;;;;;;;5069426;28;20415;-79
2022/07/16 01:22:49;;;;;;;3.03;2.03;;;;;;;;;;5072941;28;20462;-79
2022/07/16 01:25:15;;;;;;;3.27;2.00;;;;;;;;;;5073155;28;20391;-79
2022/07/16 01:27:41;;;;;;;2.42;2.22;;;;;;;;;;5074594;28;20392;-79
2022/07/16 01:30:08;;;;;;;2.17;1.98;;;;;;;;;;5070409;28;20400;-79
2022/07/16 01:32:35;;;;;;;3.40;2.40;;;;;;;;;;5054376;28;20471;-79
2022/07/16 01:35:02;;;;;;;2.40;2.20;;;;;;;;;;5056514;28;20404;-80
2022/07/16 01:37:28;;;;;;;2.50;2.10;;;;;;;;;;5060239;28;20382;-80
2022/07/16 01:39:54;;;;;;;3.30;2.25;;;;;;;;;;5071690;28;20380;-80
2022/07/16 01:42:21;;;;;;;2.80;2.20;;;;;;;;;;5071841;28;20802;-80
2022/07/16 01:44:47;;;;;;;2.30;2.10;;;;;;;;;;5073853;28;20383;-80
2022/07/16 01:47:13;;;;;;;2.17;1.80;;;;;;;;;;5073924;28;20861;-80
2022/07/16 01:49:40;;;;;;;2.20;2.00;;;;;;;;;;5074227;28;20463;-80
2022/07/16 01:52:10;;;;;;;2.13;1.80;;;;;;;;;;5065093;28;20383;-80
2022/07/16 01:54:40;;;;;;;2.00;1.90;;;;;;;;;;5054451;28;20405;-81
2022/07/16 01:57:06;;;;;;;2.65;1.83;;;;;;;;;;5055182;28;20747;-80
2022/07/16 01:59:32;;;;;;;2.75;1.95;;;;;;;;;;5053692;28;20382;-80
2022/07/16 02:01:58;;;;;;;2.05;1.85;;;;;;;;;;5055858;28;20380;-79
2022/07/16 02:04:24;;;;;;;2.83;2.15;;;;;;;;;;5062382;28;20465;-80
2022/07/16 02:06:50;;;;;;;3.42;2.10;;;;;;;;;;5056251;28;20385;-80
2022/07/16 02:09:16;;;;;;;2.60;2.13;;;;;;;;;;5061069;28;20382;-80
2022/07/16 02:11:42;;;;;;;2.58;2.10;;;;;;;;;;5072308;28;20403;-80
2022/07/16 02:14:08;;;;;;;2.70;2.30;;;;;;;;;;5073368;28;20382;-79
2022/07/16 02:16:34;;;;;;;2.47;2.00;;;;;;;;;;5071212;28;20811;-80
2022/07/16 02:19:00;;;;;;;2.67;1.98;;;;;;;;;;5062214;28;20452;-80
2022/07/16 02:21:26;;;;;;;3.92;2.10;;;;;;;;;;5065586;28;20382;-80
2022/07/16 02:23:52;;;;;;;3.17;2.13;;;;;;;;;;5069912;28;20384;-80
2022/07/16 02:26:18;;;;;;;3.10;2.00;;;;;;;;;;5060594;28;20391;-80
2022/07/16 02:28:44;;;;;;;2.47;2.27;;;;;;;;;;5080333;28;20398;-80
2022/07/16 02:31:10;;;;;;;2.55;2.33;;;;;;;;;;5066040;28;20873;-80
2022/07/16 02:33:36;;;;;;;2.30;2.10;;;;;;;;;;5071814;28;20388;-80
2022/07/16 02:36:02;;;;;;;2.67;2.40;;;;;;;;;;5053882;28;20409;-80
2022/07/16 02:38:28;;;;;;;3.70;2.30;;;;;;;;;;5090319;28;20767;-80
2022/07/16 02:40:54;;;;;;;2.83;2.40;;;;;;;;;;5090243;28;20725;-80
2022/07/16 02:43:20;;;;;;;2.65;2.00;;;;;;;;;;5092050;28;20378;-80
2022/07/16 02:45:46;;;;;;;2.20;2.00;;;;;;;;;;5093101;28;20414;-80
2022/07/16 02:48:13;;;;;;;2.83;2.30;;;;;;;;;;5092290;28;20443;-80
2022/07/16 02:50:39;;;;;;;2.50;2.10;;;;;;;;;;5093209;28;20381;-79
2022/07/16 02:53:05;;;;;;;4.30;2.42;;;;;;;;;;5093151;28;20384;-79
2022/07/16 02:55:31;;;;;;;2.65;2.15;;;;;;;;;;5092555;28;20403;-80
2022/07/16 02:57:57;;;;;;;3.53;2.47;;;;;;;;;;5093266;28;20374;-79
2022/07/16 03:00:25;;;;;;;2.50;2.22;;;;;;;;;;5092926;28;20377;-79
2022/07/16 03:02:51;;;;;;;2.30;2.10;;;;;;;;;;5092921;28;20370;-79
2022/07/16 03:05:17;;;;;;;4.00;2.35;;;;;;;;;;5092513;28;20416;-79
2022/07/16 03:07:44;;;;;;;2.60;2.40;;;;;;;;;;5093098;28;20374;-79
2022/07/16 03:10:10;;;;;;;2.53;2.10;;;;;;;;;;5092699;28;20460;-80
2022/07/16 03:12:36;;;;;;;2.65;2.35;;;;;;;;;;5092782;28;20389;-80
2022/07/16 03:15:03;;;;;;;3.20;2.17;;;;;;;;;;5083943;28;20649;-80
2022/07/16 03:17:30;;;;;;;3.15;2.50;;;;;;;;;;5072388;28;20872;-80
2022/07/16 03:19:56;;;;;;;3.27;2.40;;;;;;;;;;5072422;28;20375;-80
2022/07/16 03:22:22;;;;;;;3.75;2.50;;;;;;;;;;5071101;28;20390;-79
2022/07/16 03:24:48;;;;;;;2.50;2.30;;;;;;;;;;5072330;28;20380;-80
2022/07/16 03:27:14;;;;;;;3.20;2.30;;;;;;;;;;5072240;28;20382;-79
2022/07/16 03:29:41;;;;;;;2.33;2.13;;;;;;;;;;5072222;28;20379;-80
2022/07/16 03:32:07;;;;;;;3.38;2.28;;;;;;;;;;5072359;28;20372;-79
2022/07/16 03:34:34;;;;;;;2.57;2.23;;;;;;;;;;5071961;28;20388;-79
2022/07/16 03:37:00;;;;;;;2.60;2.20;;;;;;;;;;5072279;28;20384;-79
2022/07/16 03:39:26;;;;;;;2.77;2.40;;;;;;;;;;5072215;28;20507;-80
2022/07/16 03:41:52;;;;;;;2.53;2.20;;;;;;;;;;5072128;28;20387;-79
2022/07/16 03:44:19;;;;;;;3.30;2.40;;;;;;;;;;5071904;28;20380;-79
2022/07/16 03:46:45;;;;;;;3.22;2.50;;;;;;;;;;5072138;28;20414;-80
2022/07/16 03:49:11;;;;;;;2.50;2.30;;;;;;;;;;5070802;28;20753;-79
2022/07/16 03:51:37;;;;;;;2.40;2.20;;;;;;;;;;5072038;28;20376;-79
2022/07/16 03:54:04;;;;;;;3.70;2.50;;;;;;;;;;5072054;28;20399;-79
2022/07/16 03:56:30;;;;;;;3.17;2.50;;;;;;;;;;5071950;28;20434;-80
2022/07/16 03:58:56;;;;;;;2.33;2.13;;;;;;;;;;5071897;28;20407;-80
2022/07/16 04:01:22;;;;;;;2.47;2.28;;;;;;;;;;5083533;28;20375;-79
2022/07/16 04:03:48;;;;;;;2.40;2.20;;;;;;;;;;5091997;28;20878;-80
2022/07/16 04:06:14;;;;;;;2.38;2.17;;;;;;;;;;5093845;28;20424;-80
2022/07/16 04:08:40;;;;;;;3.80;2.55;;;;;;;;;;5096150;28;20434;-79
2022/07/16 04:11:06;;;;;;;2.60;2.40;;;;;;;;;;5096174;28;20461;-80
2022/07/16 04:13:32;;;;;;;3.80;2.50;;;;;;;;;;5096068;28;20400;-80
2022/07/16 04:15:58;;;;;;;2.90;2.42;;;;;;;;;;5080813;28;20884;-79
2022/07/16 04:18:24;;;;;;;2.90;2.10;;;;;;;;;;5075782;28;20384;-79
2022/07/16 04:20:50;;;;;;;2.58;2.22;;;;;;;;;;5075680;28;20718;-80
2022/07/16 04:23:16;;;;;;;2.83;2.60;;;;;;;;;;5075547;28;20375;-79
2022/07/16 04:25:42;;;;;;;4.05;2.50;;;;;;;;;;5075641;28;20387;-80
2022/07/16 04:28:08;;;;;;;3.60;2.20;;;;;;;;;;5073821;28;20780;-80
2022/07/16 04:30:34;;;;;;;3.38;2.30;;;;;;;;;;5075086;28;20407;-80
2022/07/16 04:33:00;;;;;;;2.40;2.20;;;;;;;;;;5092376;28;20389;-80
2022/07/16 04:35:26;;;;;;;4.15;2.50;;;;;;;;;;5094152;28;20406;-80
2022/07/16 04:37:52;;;;;;;4.27;2.30;;;;;;;;;;5095539;28;20369;-80
2022/07/16 04:40:18;;;;;;;3.83;2.40;;;;;;;;;;5095607;28;20385;-80
2022/07/16 04:42:45;;;;;;;4.70;2.42;;;;;;;;;;5095607;28;20367;-80
2022/07/16 04:45:11;;;;;;;2.72;2.33;;;;;;;;;;5095514;28;20378;-79
2022/07/16 04:47:38;;;;;;;2.30;2.10;;;;;;;;;;5082303;28;20463;-79
2022/07/16 04:50:05;;;;;;;8.18;2.80;;;;;;;;;;5072993;28;20406;-80
2022/07/16 04:52:31;;;;;;;4.03;2.55;;;;;;;;;;5072809;28;20891;-79
2022/07/16 04:54:58;;;;;;;2.67;2.40;;;;;;;;;;5073793;28;20416;-79
2022/07/16 04:57:24;;;;;;;3.13;2.60;;;;;;;;;;5071378;28;20500;-80
2022/07/16 04:59:51;;;;;;;5.13;2.50;;;;;;;;;;5073905;28;20398;-79
2022/07/16 05:05:02;;;;;;;2.60;2.40;;;;;;;;;;5074783;28;20379;-79
2022/07/16 05:07:28;;;;;;;5.10;2.75;;;;;;;;;;5074961;28;20376;-80
2022/07/16 05:09:54;;;;;;;3.40;2.13;;;;;;;;;;5073240;28;20396;-79
2022/07/16 05:12:20;;;;;;;3.22;2.35;;;;;;;;;;5074143;28;20422;-79
2022/07/16 05:14:46;;;;;;;4.25;2.15;;;;;;;;;;5072963;28;20416;-80
2022/07/16 05:17:12;;;;;;;4.07;2.47;;;;;;;;;;5073763;28;20376;-80
2022/07/16 05:19:38;;;;;;;3.60;3.15;;;;;;;;;;5074647;28;20384;-80
2022/07/16 05:22:05;;;;;;;3.67;3.15;;;;;;;;;;5074625;28;20376;-80
2022/07/16 05:24:31;;;;;;;3.28;2.47;;;;;;;;;;5073651;28;20425;-80
2022/07/16 05:26:58;;;;;;;2.50;2.30;;;;;;;;;;5074023;28;20463;-80
2022/07/16 05:29:24;;;;;;;2.53;2.33;;;;;;;;;;5073806;28;20458;-79
2022/07/16 05:31:50;;;;;;;2.63;2.30;;;;;;;;;;5074490;28;20456;-79
2022/07/16 05:34:16;;;;;;;4.00;2.45;;;;;;;;;;5073738;28;20738;-80
2022/07/16 05:36:42;;;;;;;3.33;2.05;;;;;;;;;;5072314;28;21141;-79
2022/07/16 05:39:08;;;;;;;18.92;3.63;;;;;;;;;;5073541;28;20376;-79
2022/07/16 05:41:34;;;;;;;3.97;2.20;;;;;;;;;;5074225;28;20375;-79
2022/07/16 05:44:00;;;;;;;3.87;2.23;;;;;;;;;;5072818;28;20764;-79
2022/07/16 05:46:26;;;;;;;3.17;2.22;;;;;;;;;;5074078;28;20411;-79
2022/07/16 05:48:52;;;;;;;5.63;2.22;;;;;;;;;;5074081;28;20418;-79
2022/07/16 05:51:19;;;;;;;2.60;2.03;;;;;;;;;;5074234;28;20380;-79
2022/07/16 05:53:45;;;;;;;3.33;2.25;;;;;;;;;;5073920;28;20390;-79
2022/07/16 05:56:11;;;;;;;3.33;1.90;;;;;;;;;;5073874;28;20425;-79
2022/07/16 05:58:37;;;;;;;2.58;2.13;;;;;;;;;;5073846;28;20450;-79
2022/07/16 06:01:03;;;;;;;3.25;2.08;;;;;;;;;;5073836;28;20380;-79
2022/07/16 06:03:29;;;;;;;4.03;2.13;;;;;;;;;;5073770;28;20379;-79
2022/07/16 06:05:55;;;;;;;3.50;2.08;;;;;;;;;;5073204;28;20857;-79
2022/07/16 06:08:21;;;;;;;2.85;2.20;;;;;;;;;;5073595;28;20384;-79
2022/07/16 06:10:47;;;;;;;3.10;2.20;;;;;;;;;;5078774;28;20461;-79
2022/07/16 06:13:13;;;;;;;2.72;2.10;;;;;;;;;;5065506;28;20900;-79
2022/07/16 06:15:39;;;;;;;3.08;2.10;;;;;;;;;;5069160;28;20426;-79
2022/07/16 06:18:06;;;;;;;3.10;2.27;;;;;;;;;;5070498;28;20452;-80
2022/07/16 06:20:32;;;;;;;2.38;2.17;;;;;;;;;;5070921;28;20756;-79
2022/07/16 06:22:58;;;;;;;2.75;2.00;;;;;;;;;;5072652;28;20376;-81
2022/07/16 06:25:26;;;;;;;3.03;2.43;;;;;;;;;;5070341;28;20457;-79
2022/07/16 06:27:52;;;;;;;3.60;2.22;;;;;;;;;;5073570;28;20382;-80
2022/07/16 06:30:18;;;;;;;2.47;2.10;;;;;;;;;;5072663;28;20467;-79
2022/07/16 06:32:44;;;;;;;3.53;2.00;;;;;;;;;;5068488;28;20376;-80
2022/07/16 06:35:11;;;;;;;4.15;2.40;;;;;;;;;;5072965;28;20523;-79
2022/07/16 06:37:37;;;;;;;2.42;2.05;;;;;;;;;;5072743;28;20455;-80
2022/07/16 06:40:04;;;;;;;2.72;2.35;;;;;;;;;;5073144;28;20379;-80
2022/07/16 06:42:30;;;;;;;2.47;2.20;;;;;;;;;;5073048;28;20380;-79
2022/07/16 06:44:56;;;;;;;4.10;2.35;;;;;;;;;;5072905;28;20376;-79
2022/07/16 06:47:22;;;;;;;3.03;2.00;;;;;;;;;;5072969;28;20414;-80
2022/07/16 06:49:48;;;;;;;2.92;2.10;;;;;;;;;;5072798;28;20857;-79
2022/07/16 06:52:14;;;;;;;6.72;2.30;;;;;;;;;;5072757;28;20394;-79
2022/07/16 06:54:40;;;;;;;5.30;2.38;;;;;;;;;;5072656;28;20448;-80
2022/07/16 06:57:06;;;;;;;5.40;2.30;;;;;;;;;;5072779;28;20458;-80
2022/07/16 06:59:32;;;;;;;3.60;2.00;;;;;;;;;;5073143;28;20384;-79
2022/07/16 07:01:58;;;;;;;3.93;2.43;;;;;;;;;;5063367;28;20456;-80
2022/07/16 07:04:24;;;;;;;3.67;2.23;;;;;;;;;;5072535;28;20376;-80
2022/07/16 07:06:50;;;;;;;3.63;2.10;;;;;;;;;;5072501;28;20380;-79
2022/07/16 07:09:16;;;;;;;4.22;2.42;;;;;;;;;;5072048;28;20404;-79
2022/07/16 07:11:42;;;;;;;2.65;2.15;;;;;;;;;;5062951;28;20889;-79
2022/07/16 07:14:09;;;;;;;5.38;2.15;;;;;;;;;;5069240;28;20388;-79
2022/07/16 07:16:35;;;;;;;3.03;1.77;;;;;;;;;;5072273;28;20438;-79
2022/07/16 07:19:01;;;;;;;4.80;2.28;;;;;;;;;;5072519;28;20379;-80
2022/07/16 07:21:27;;;;;;;2.38;2.10;;;;;;;;;;5072592;28;20375;-80
2022/07/16 07:23:53;;;;;;;2.80;2.50;;;;;;;;;;5065719;28;20381;-80
2022/07/16 07:26:19;;;;;;;2.65;2.40;;;;;;;;;;5071134;28;20852;-80
2022/07/16 07:28:45;;;;;;;3.42;2.05;;;;;;;;;;5068120;28;20439;-79
2022/07/16 07:31:11;;;;;;;2.53;2.20;;;;;;;;;;5067929;28;20372;-80
2022/07/16 07:33:38;;;;;;;2.88;2.08;;;;;;;;;;5072203;28;20746;-79
2022/07/16 07:36:04;;;;;;;3.95;2.20;;;;;;;;;;5072113;28;20422;-80
2022/07/16 07:38:31;;;;;;;4.38;2.30;;;;;;;;;;5072152;28;20376;-79
2022/07/16 07:40:57;;;;;;;3.47;2.10;;;;;;;;;;5069036;28;20916;-79
2022/07/16 07:43:23;;;;;;;2.35;2.13;;;;;;;;;;5065395;28;20423;-80
2022/07/16 07:45:49;;;;;;;3.03;2.10;;;;;;;;;;5071921;28;20412;-80
2022/07/16 07:48:15;;;;;;;2.83;2.10;;;;;;;;;;5063400;28;20397;-80
2022/07/16 07:50:42;;;;;;;4.18;2.03;;;;;;;;;;5068085;28;20383;-80
2022/07/16 07:53:08;;;;;;;3.67;2.25;;;;;;;;;;5071845;28;20380;-80
2022/07/16 07:55:34;;;;;;;3.25;1.92;;;;;;;;;;5072020;28;20427;-80
2022/07/16 07:58:00;;;;;;;2.40;2.10;;;;;;;;;;5071602;28;20379;-80
2022/07/16 08:00:26;;;;;;;4.57;2.20;;;;;;;;;;5065218;28;20946;-79
2022/07/16 08:02:52;;;;;;;3.28;2.45;;;;;;;;;;5072144;28;20398;-80
2022/07/16 08:05:18;;;;;;;4.43;2.33;;;;;;;;;;5070796;28;20869;-79
2022/07/16 08:07:45;;;;;;;2.20;2.00;;;;;;;;;;5072034;28;20429;-80
2022/07/16 08:10:11;;;;;;;4.25;2.25;;;;;;;;;;5070688;28;20418;-80
2022/07/16 08:12:41;;;;;;;3.80;2.22;;;;;;;;;;5063315;28;20392;-81
2022/07/16 08:15:08;;;;;;;3.42;2.00;;;;;;;;;;5068069;28;20403;-80
2022/07/16 08:17:35;;;;;;;2.47;1.80;;;;;;;;;;5070786;28;20917;-81
2022/07/16 08:20:01;;;;;;;2.35;1.75;;;;;;;;;;5066975;28;20399;-80
2022/07/16 08:22:27;;;;;;;2.97;1.80;;;;;;;;;;5065974;28;20391;-81
2022/07/16 08:27:38;;;;;;;2.85;1.90;;;;;;;;;;5068375;28;20367;-80
2022/07/16 08:30:05;;;;;;;3.00;1.50;;;;;;;;;;5073293;28;20386;-80
2022/07/16 08:32:32;;;;;;;3.47;1.80;;;;;;;;;;5069727;28;20380;-81
2022/07/16 08:35:01;;;;;;;3.23;1.70;;;;;;;;;;5067464;28;20510;-81
2022/07/16 08:37:35;;;;;;;3.35;1.83;;;;;;;;;;5073017;28;20387;-81
2022/07/16 08:40:02;;;;;;;2.17;1.52;;;;;;;;;;5071716;28;20380;-80
2022/07/16 08:42:30;;;;;;;2.72;1.92;;;;;;;;;;5071165;28;20389;-81
2022/07/16 08:44:57;;;;;;;3.05;1.83;;;;;;;;;;5067751;28;20488;-82
2022/07/16 08:47:23;;;;;;;2.43;1.60;;;;;;;;;;5069149;28;20406;-83
2022/07/16 08:49:50;;;;;;;2.45;1.83;;;;;;;;;;5063521;28;20403;-83
2022/07/16 08:52:19;;;;;;;3.03;1.80;;;;;;;;;;5067916;28;20384;-83
2022/07/16 08:54:45;;;;;;;4.65;1.80;;;;;;;;;;5074454;28;20433;-81
2022/07/16 08:57:12;;;;;;;2.72;1.85;;;;;;;;;;5075177;28;20767;-83
2022/07/16 08:59:38;;;;;;;1.98;1.73;;;;;;;;;;5074934;28;20426;-83
2022/07/16 09:02:04;;;;;;;3.17;1.85;;;;;;;;;;5075017;28;20444;-82
2022/07/16 09:04:30;;;;;;;3.80;1.80;;;;;;;;;;5074439;28;20384;-83
2022/07/16 09:06:56;;;;;;;4.35;1.95;;;;;;;;;;5075079;28;20865;-81
2022/07/16 09:09:22;;;;;;;2.78;1.80;;;;;;;;;;5073133;28;20455;-82
2022/07/16 09:11:48;;;;;;;3.67;1.90;;;;;;;;;;5074284;28;20384;-81
2022/07/16 09:14:15;;;;;;;4.35;1.70;;;;;;;;;;5070885;28;20876;-82
2022/07/16 09:16:43;;;;;;;3.35;1.90;;;;;;;;;;5068376;28;20407;-82
2022/07/16 09:19:17;;;;;;;5.32;1.88;;;;;;;;;;5073405;28;20462;-82
2022/07/16 09:22:12;;;;;;;5.82;1.98;;;;;;;;;;5074307;28;20375;-84
2022/07/16 09:24:49;;;;;;;2.85;1.70;;;;;;;;;;5063897;28;20865;-83
2022/07/16 09:27:16;;;;;;;2.90;1.70;;;;;;;;;;5073481;28;20376;-83
2022/07/16 09:29:45;;;;;;;2.90;1.58;;;;;;;;;;5072369;28;20426;-81
2022/07/16 09:32:12;;;;;;;3.40;1.77;;;;;;;;;;5073195;28;20541;-82
2022/07/16 09:34:38;;;;;;;2.33;1.60;;;;;;;;;;5072802;28;20449;-82
2022/07/16 09:37:07;;;;;;;3.40;1.95;;;;;;;;;;5073376;28;20415;-82
2022/07/16 09:39:34;;;;;;;3.33;1.60;;;;;;;;;;5073307;28;20459;-82
2022/07/16 09:42:00;;;;;;;2.47;1.65;;;;;;;;;;5073275;28;20383;-82
2022/07/16 09:44:28;;;;;;;3.25;1.70;;;;;;;;;;5073319;28;20729;-82
2022/07/16 09:47:03;;;;;;;4.35;1.42;;;;;;;;;;5071259;28;20391;-82
2022/07/16 09:49:30;;;;;;;3.00;1.55;;;;;;;;;;5067828;28;20376;-82
2022/07/16 09:51:56;;;;;;;2.53;1.50;;;;;;;;;;5073111;28;20383;-82
2022/07/16 09:54:32;;;;;;;2.70;1.67;;;;;;;;;;5072732;28;20383;-82
2022/07/16 09:57:05;;;;;;;3.37;1.57;;;;;;;;;;5069898;28;20449;-82
2022/07/16 09:59:32;;;;;;;3.80;1.43;;;;;;;;;;5072378;28;20383;-82
2022/07/16 10:01:58;;;;;;;2.47;1.35;;;;;;;;;;5072835;28;20473;-82
2022/07/16 10:04:25;;;;;;;7.10;1.77;;;;;;;;;;5071741;28;20384;-82
2022/07/16 10:06:51;;;;;;;4.78;1.60;;;;;;;;;;5072819;28;20437;-81
2022/07/16 10:09:18;;;;;;;3.00;1.60;;;;;;;;;;5072827;28;20379;-81
2022/07/16 10:11:44;;;;;;;2.15;1.40;;;;;;;;;;5073557;28;20380;-81
2022/07/16 10:14:10;;;;;;;1.73;1.40;;;;;;;;;;5073499;28;20542;-81
2022/07/16 10:16:45;;;;;;;2.10;1.37;;;;;;;;;;5073612;28;20482;-81
2022/07/16 10:19:12;;;;;;;2.10;1.48;;;;;;;;;;5073638;28;20471;-81
2022/07/16 10:21:38;;;;;;;2.58;1.60;;;;;;;;;;5073689;28;20380;-82
2022/07/16 10:24:04;;;;;;;1.42;1.20;;;;;;;;;;5073533;28;20394;-82
2022/07/16 10:26:32;;;;;;;2.58;1.42;;;;;;;;;;5074657;28;20467;-82
2022/07/16 10:28:58;;;;;;;1.92;1.38;;;;;;;;;;5089100;28;20382;-81
2022/07/16 10:31:41;;;;;;;1.80;1.23;;;;;;;;;;5085028;28;20471;-81
2022/07/16 10:34:13;;;;;;;3.00;1.40;;;;;;;;;;5084977;28;20457;-81
2022/07/16 10:36:50;;;;;;;2.70;1.60;;;;;;;;;;5093319;28;20398;-81
2022/07/16 10:39:16;;;;;;;3.05;1.50;;;;;;;;;;5092131;28;20382;-81
2022/07/16 10:41:49;;;;;;;3.00;1.40;;;;;;;;;;5093311;28;20374;-81
2022/07/16 10:44:15;;;;;;;1.83;1.50;;;;;;;;;;5093349;28;20376;-82
2022/07/16 10:46:54;;;;;;;1.52;1.30;;;;;;;;;;5093291;28;20486;-82
2022/07/16 10:49:21;;;;;;;2.65;1.60;;;;;;;;;;5084212;28;20474;-81
2022/07/16 10:51:55;;;;;;;2.33;1.50;;;;;;;;;;5071642;28;20398;-80
2022/07/16 10:54:21;;;;;;;1.80;1.38;;;;;;;;;;5072984;28;20736;-79
2022/07/16 10:56:48;;;;;;;2.10;1.30;;;;;;;;;;5068006;28;20931;-79
2022/07/16 10:59:16;;;;;;;2.22;1.40;;;;;;;;;;5073121;28;20719;-80
2022/07/16 11:01:43;;;;;;;2.03;1.50;;;;;;;;;;5072776;28;20850;-79
2022/07/16 11:04:10;;;;;;;2.00;1.60;;;;;;;;;;5072786;28;20380;-79
2022/07/16 11:06:37;;;;;;;2.08;1.58;;;;;;;;;;5072883;28;20382;-79
2022/07/16 11:09:04;;;;;;;4.03;1.60;;;;;;;;;;5070442;28;20380;-79
2022/07/16 11:11:41;;;;;;;2.23;1.53;;;;;;;;;;5071324;28;20437;-79
2022/07/16 11:14:09;;;;;;;2.75;1.60;;;;;;;;;;5071302;28;20386;-79
2022/07/16 11:16:35;;;;;;;1.80;1.40;;;;;;;;;;5071273;28;20915;-79
2022/07/16 11:19:02;;;;;;;1.98;1.50;;;;;;;;;;5072543;28;20384;-79
2022/07/16 11:21:28;;;;;;;1.60;1.40;;;;;;;;;;5072770;28;20375;-80
2022/07/16 11:23:55;;;;;;;2.65;1.60;;;;;;;;;;5071913;28;20833;-79
2022/07/16 11:26:21;;;;;;;2.50;1.40;;;;;;;;;;5071200;28;20391;-79
2022/07/16 11:28:51;;;;;;;2.60;1.45;;;;;;;;;;5071878;28;20376;-79
2022/07/16 11:31:23;;;;;;;2.30;1.65;;;;;;;;;;5072676;28;20376;-79
2022/07/16 11:33:49;;;;;;;2.30;1.50;;;;;;;;;;5063619;28;20414;-79
2022/07/16 11:36:15;;;;;;;2.95;1.83;;;;;;;;;;5072231;28;20415;-80
2022/07/16 11:38:41;;;;;;;3.10;1.40;;;;;;;;;;5072342;28;20879;-79
2022/07/16 11:41:08;;;;;;;2.95;1.40;;;;;;;;;;5072525;28;20429;-82
2022/07/16 11:43:34;;;;;;;2.30;1.55;;;;;;;;;;5072182;28;20372;-79
2022/07/16 11:46:00;;;;;;;1.48;1.38;;;;;;;;;;5071435;28;20472;-80
2022/07/16 11:48:35;;;;;;;2.72;1.50;;;;;;;;;;5071111;28;20392;-80
2022/07/16 11:51:06;;;;;;;2.20;1.50;;;;;;;;;;5068133;28;20384;-79
2022/07/16 11:53:37;;;;;;;4.17;3.83;;;;;;;;;;5070918;28;20476;-79
2022/07/16 11:56:04;;;;;;;2.80;1.70;;;;;;;;;;5063521;28;20449;-80
2022/07/16 11:58:30;;;;;;;3.60;1.50;;;;;;;;;;5072099;28;20376;-81
2022/07/16 12:00:56;;;;;;;2.22;1.70;;;;;;;;;;5072131;28;20425;-81
2022/07/16 12:03:22;;;;;;;3.25;1.65;;;;;;;;;;5070650;28;20380;-81
2022/07/16 12:05:59;;;;;;;1.67;1.57;;;;;;;;;;5071922;28;20399;-80
2022/07/16 12:08:25;;;;;;;3.47;1.50;;;;;;;;;;5072078;28;20388;-81
2022/07/16 12:11:02;;;;;;;2.30;1.60;;;;;;;;;;5070819;28;20375;-80
2022/07/16 12:13:28;;;;;;;2.65;1.52;;;;;;;;;;5068874;28;20375;-79
2022/07/16 12:15:55;;;;;;;3.70;1.90;;;;;;;;;;5066142;28;20509;-79
2022/07/16 12:18:23;;;;;;;1.60;1.50;;;;;;;;;;5065822;28;20389;-79
2022/07/16 12:20:49;;;;;;;2.55;1.50;;;;;;;;;;5064182;28;20413;-79
2022/07/16 12:23:30;;;;;;;2.90;1.60;;;;;;;;;;5054635;28;20387;-79
2022/07/16 12:26:00;;;;;;;2.43;1.50;;;;;;;;;;5069825;28;20394;-79
2022/07/16 12:28:27;;;;;;;2.53;1.48;;;;;;;;;;5075176;28;20372;-79
2022/07/16 12:30:54;;;;;;;2.78;1.50;;;;;;;;;;5075858;28;20702;-80
2022/07/16 12:33:27;;;;;;;2.40;1.60;;;;;;;;;;5095298;28;20522;-79
2022/07/16 12:35:58;;;;;;;1.55;1.45;;;;;;;;;;5094657;28;20402;-80
2022/07/16 12:38:37;;;;;;;2.08;1.80;;;;;;;;;;5091900;28;20381;-80
2022/07/16 13:07:01;;;;;;;2.50;1.73;;;;;;;;;;5804274;22;20447;-81
2022/07/16 13:09:27;;;;;;;2.33;2.10;;;;;;;;;;5041853;28;20431;-83
2022/07/16 13:11:53;;;;;;;2.45;1.80;;;;;;;;;;5039456;28;20464;-82
2022/07/16 13:14:20;;;;;;;4.10;1.70;;;;;;;;;;5032633;28;20391;-81
2022/07/16 13:16:46;;;;;;;2.17;1.88;;;;;;;;;;5033902;28;20417;-81
2022/07/16 13:19:12;;;;;;;2.30;1.70;;;;;;;;;;5033902;28;20375;-82
2022/07/16 13:21:39;;;;;;;3.70;1.65;;;;;;;;;;5034049;28;20414;-82
2022/07/16 13:24:05;;;;;;;2.67;1.40;;;;;;;;;;5032080;28;20411;-82
2022/07/16 13:26:32;;;;;;;3.28;1.60;;;;;;;;;;5023246;28;20869;-85
2022/07/16 13:28:59;;;;;;;2.17;1.40;;;;;;;;;;5015847;28;20385;-82
2022/07/16 13:31:25;;;;;;;1.83;1.58;;;;;;;;;;5034596;28;20383;-84
2022/07/16 13:33:52;;;;;;;2.20;1.55;;;;;;;;;;5035053;28;20848;-81
2022/07/16 13:36:18;;;;;;;2.78;1.50;;;;;;;;;;5033780;28;20489;-78
2022/07/16 13:38:45;;;;;;;1.75;1.50;;;;;;;;;;5033267;28;20433;-78
2022/07/16 13:41:12;;;;;;;2.13;1.58;;;;;;;;;;5032444;28;20401;-78
2022/07/16 13:43:38;;;;;;;1.65;1.50;;;;;;;;;;5032899;28;20480;-78
2022/07/16 13:46:09;;;;;;;3.05;1.60;;;;;;;;;;5031775;28;20470;-78
2022/07/16 13:48:35;;;;;;;2.45;1.42;;;;;;;;;;5032799;28;20437;-78
2022/07/16 13:51:01;;;;;;;2.63;1.70;;;;;;;;;;5032957;28;20470;-78
2022/07/16 13:53:27;;;;;;;3.50;1.80;;;;;;;;;;5031541;28;20382;-78
2022/07/16 13:55:53;;;;;;;1.63;1.53;;;;;;;;;;5031474;28;20427;-78
2022/07/16 13:58:23;;;;;;;2.70;1.70;;;;;;;;;;5033632;28;20441;-78
2022/07/16 14:00:51;;;;;;;1.80;1.70;;;;;;;;;;5031635;28;20401;-77
2022/07/16 14:03:18;;;;;;;3.10;2.00;;;;;;;;;;5031520;28;20462;-77
2022/07/16 14:05:44;;;;;;;1.80;1.60;;;;;;;;;;5044577;23;20437;-81
2022/07/16 14:08:11;;;;;;;2.65;2.17;;;;;;;;;;5024073;28;20411;-81
2022/07/16 14:10:38;;;;;;;2.92;2.22;;;;;;;;;;5030035;28;20430;-81
2022/07/16 14:13:04;;;;;;;2.17;1.88;;;;;;;;;;5012543;28;20395;-81
2022/07/16 14:15:30;;;;;;;1.90;1.60;;;;;;;;;;5030911;28;20418;-81
2022/07/16 14:18:04;;;;;;;1.70;1.48;;;;;;;;;;5033140;28;20506;-81
2022/07/16 14:20:30;;;;;;;2.83;1.50;;;;;;;;;;5019380;28;20476;-81
2022/07/16 14:22:56;;;;;;;1.73;1.60;;;;;;;;;;5016080;28;20425;-81
2022/07/16 14:25:23;;;;;;;2.40;1.50;;;;;;;;;;5015446;28;20423;-81
2022/07/16 14:27:49;;;;;;;1.67;1.48;;;;;;;;;;5015194;28;20385;-81
2022/07/16 14:30:15;;;;;;;4.00;1.30;;;;;;;;;;5013889;28;20385;-81
2022/07/16 14:32:42;;;;;;;2.63;1.50;;;;;;;;;;5015300;28;20518;-81
2022/07/16 14:35:09;;;;;;;1.50;1.40;;;;;;;;;;5013890;28;20482;-81
2022/07/16 14:37:38;;;;;;;1.95;1.50;;;;;;;;;;5013589;28;20885;-81
2022/07/16 14:40:06;;;;;;;2.10;1.55;;;;;;;;;;5013173;28;20380;-81
2022/07/16 14:42:33;;;;;;;2.10;1.80;;;;;;;;;;5000034;28;20926;-81
2022/07/16 14:44:59;;;;;;;1.65;1.55;;;;;;;;;;5020960;28;20391;-81
2022/07/16 14:47:25;;;;;;;1.98;1.50;;;;;;;;;;5018176;28;20385;-80
2022/07/16 14:49:51;;;;;;;1.80;1.50;;;;;;;;;;5036900;28;20428;-80
2022/07/16 14:52:17;;;;;;;1.92;1.50;;;;;;;;;;5039841;28;20379;-81
2022/07/16 14:54:44;;;;;;;2.80;1.60;;;;;;;;;;5032952;28;20437;-81
2022/07/16 14:57:10;;;;;;;2.35;1.80;;;;;;;;;;5023957;28;20447;-81
2022/07/16 14:59:36;;;;;;;3.88;2.10;;;;;;;;;;5026141;28;20449;-80
2022/07/16 15:02:02;;;;;;;3.30;1.95;;;;;;;;;;5023382;28;20393;-81
2022/07/16 15:04:28;;;;;;;2.17;1.70;;;;;;;;;;5013426;28;20403;-81
2022/07/16 15:06:54;;;;;;;1.95;1.60;;;;;;;;;;5014410;28;20471;-81
2022/07/16 15:09:20;;;;;;;3.50;1.55;;;;;;;;;;5018888;28;20393;-81
2022/07/16 15:11:46;;;;;;;2.53;1.70;;;;;;;;;;5021347;28;20396;-81
2022/07/16 15:14:12;;;;;;;2.45;1.63;;;;;;;;;;5020194;28;20861;-81
2022/07/16 15:16:38;;;;;;;2.65;1.80;;;;;;;;;;5030256;28;20431;-81